createdAt,value
2023-08-05T00:02:15.893Z,5.07
2023-08-05T00:04:43.528Z,4.87
2023-08-05T00:07:11.287Z,5.57
2023-08-05T00:09:38.585Z,4.80
2023-08-05T00:12:06.112Z,5.20
2023-08-05T00:14:37.504Z,5.30
2023-08-05T00:17:05.202Z,5.57
2023-08-05T00:19:33.301Z,5.57
2023-08-05T00:22:01.534Z,5.50
2023-08-05T00:24:28.728Z,5.93
2023-08-05T00:26:55.877Z,4.93
2023-08-05T00:29:23.240Z,5.73
2023-08-05T00:31:50.485Z,5.33
2023-08-05T00:34:17.757Z,5.50
2023-08-05T00:36:44.989Z,5.33
2023-08-05T00:39:13.484Z,6.00
2023-08-05T00:41:40.626Z,5.80
2023-08-05T00:44:08.812Z,5.70
2023-08-05T00:46:36.065Z,5.57
2023-08-05T00:49:03.410Z,5.57
2023-08-05T00:51:31.683Z,5.90
2023-08-05T00:53:59.044Z,5.40
2023-08-05T00:56:27.370Z,5.60
2023-08-05T00:58:54.981Z,5.47
2023-08-05T01:01:22.647Z,6.30
2023-08-05T01:03:50.298Z,6.00
2023-08-05T01:06:17.753Z,5.70
2023-08-05T01:08:45.556Z,6.10
2023-08-05T01:11:12.895Z,5.80
2023-08-05T01:13:41.454Z,5.53
2023-08-05T01:16:08.633Z,6.50
2023-08-05T01:18:38.218Z,5.50
2023-08-05T01:21:08.585Z,5.57
2023-08-05T01:23:53.215Z,5.40
2023-08-05T01:26:21.481Z,5.33
2023-08-05T01:28:50.622Z,5.53
2023-08-05T01:31:18.060Z,5.33
2023-08-05T01:33:46.238Z,5.43
2023-08-05T01:36:20.952Z,5.37
2023-08-05T01:38:49.217Z,5.70
2023-08-05T01:41:16.876Z,5.50
2023-08-05T01:43:45.156Z,5.90
2023-08-05T01:46:12.357Z,5.63
2023-08-05T01:48:39.574Z,6.13
2023-08-05T01:51:06.780Z,5.87
2023-08-05T01:53:35.025Z,5.63
2023-08-05T01:56:02.274Z,5.97
2023-08-05T01:58:29.612Z,5.60
2023-08-05T02:00:56.969Z,5.37
2023-08-05T02:03:24.451Z,5.33
2023-08-05T02:05:53.190Z,6.33
2023-08-05T02:08:20.340Z,6.27
2023-08-05T02:10:48.561Z,6.53
2023-08-05T02:13:17.407Z,5.70
2023-08-05T02:15:44.661Z,6.57
2023-08-05T02:18:11.819Z,6.30
2023-08-05T02:20:39.268Z,6.23
2023-08-05T02:23:06.455Z,6.23
2023-08-05T02:25:33.567Z,6.17
2023-08-05T02:28:00.743Z,7.17
2023-08-05T02:30:27.955Z,6.47
2023-08-05T02:32:55.195Z,6.30
2023-08-05T02:35:22.380Z,6.47
2023-08-05T02:37:50.526Z,6.23
2023-08-05T02:40:18.047Z,6.53
2023-08-05T02:42:46.796Z,6.40
2023-08-05T02:45:16.316Z,5.33
2023-08-05T02:47:47.699Z,5.80
2023-08-05T02:50:16.856Z,5.43
2023-08-05T02:52:46.148Z,5.83
2023-08-05T02:55:14.678Z,5.73
2023-08-05T02:57:41.785Z,5.73
2023-08-05T03:00:11.803Z,5.37
2023-08-05T03:02:40.470Z,5.80
2023-08-05T03:05:09.093Z,6.33
2023-08-05T03:07:36.282Z,6.03
2023-08-05T03:10:03.682Z,6.60
2023-08-05T03:12:30.937Z,5.83
2023-08-05T03:14:58.837Z,6.13
2023-08-05T03:17:26.063Z,6.10
2023-08-05T03:19:53.768Z,5.93
2023-08-05T03:22:21.992Z,5.73
2023-08-05T03:24:49.402Z,5.60
2023-08-05T03:27:16.731Z,5.60
2023-08-05T03:29:44.401Z,5.30
2023-08-05T03:32:11.560Z,5.47
2023-08-05T03:34:40.112Z,5.47
2023-08-05T03:37:08.388Z,6.43
2023-08-05T03:39:35.561Z,5.73
2023-08-05T03:42:04.835Z,5.87
2023-08-05T03:44:32.429Z,5.80
2023-08-05T03:47:02.000Z,5.23
2023-08-05T03:49:31.568Z,5.93
2023-08-05T03:51:58.745Z,6.20
2023-08-05T03:54:27.153Z,6.33
2023-08-05T03:56:54.355Z,6.57
2023-08-05T03:59:21.585Z,5.90
2023-08-05T04:01:48.744Z,6.47
2023-08-05T04:04:16.236Z,5.30
2023-08-05T04:06:43.475Z,6.97
2023-08-05T04:09:11.681Z,6.10
2023-08-05T04:11:39.033Z,5.60
2023-08-05T04:14:07.319Z,5.50
2023-08-05T04:16:35.889Z,5.93
2023-08-05T04:19:06.852Z,5.97
2023-08-05T04:21:41.792Z,5.70
2023-08-05T04:24:10.402Z,6.10
2023-08-05T04:26:37.815Z,5.67
2023-08-05T04:29:05.133Z,7.50
2023-08-05T04:31:32.764Z,6.00
2023-08-05T04:34:00.062Z,6.33
2023-08-05T04:36:27.968Z,5.87
2023-08-05T04:38:58.119Z,5.93
2023-08-05T04:41:25.262Z,5.50
2023-08-05T04:43:52.545Z,5.93
2023-08-05T04:46:19.816Z,5.43
2023-08-05T04:48:46.882Z,5.80
2023-08-05T04:51:15.123Z,6.07
2023-08-05T04:53:42.356Z,6.50
2023-08-05T04:56:10.769Z,6.83
2023-08-05T04:58:37.922Z,6.37
2023-08-05T05:01:07.401Z,6.27
2023-08-05T05:03:34.607Z,6.20
2023-08-05T05:06:02.034Z,6.77
2023-08-05T05:08:31.828Z,5.93
2023-08-05T05:10:59.126Z,6.50
2023-08-05T05:13:26.414Z,6.43
2023-08-05T05:15:54.081Z,6.17
2023-08-05T05:18:21.583Z,5.80
2023-08-05T05:20:52.106Z,6.63
2023-08-05T05:23:20.298Z,6.27
2023-08-05T05:25:47.469Z,6.20
2023-08-05T05:28:15.856Z,7.03
2023-08-05T05:30:43.173Z,7.23
2023-08-05T05:33:10.776Z,7.27
2023-08-05T05:35:37.979Z,7.13
2023-08-05T05:38:05.170Z,7.17
2023-08-05T05:40:32.379Z,8.33
2023-08-05T05:42:59.570Z,8.07
2023-08-05T05:45:29.284Z,7.97
2023-08-05T05:47:56.732Z,7.73
2023-08-05T05:50:23.966Z,6.93
2023-08-05T05:52:54.825Z,6.40
2023-08-05T05:55:22.616Z,7.17
2023-08-05T05:57:50.224Z,6.80
2023-08-05T06:00:17.689Z,6.07
2023-08-05T06:02:46.076Z,5.53
2023-08-05T06:05:13.500Z,5.40
2023-08-05T06:07:43.530Z,5.47
2023-08-05T06:10:12.093Z,5.60
2023-08-05T06:12:40.613Z,4.97
2023-08-05T06:15:08.913Z,5.00
2023-08-05T06:17:36.277Z,4.57
2023-08-05T06:20:04.808Z,4.20
2023-08-05T06:22:34.126Z,4.10
2023-08-05T06:25:01.585Z,4.90
2023-08-05T06:27:30.767Z,4.53
2023-08-05T06:29:58.157Z,4.23
2023-08-05T06:32:26.486Z,4.30
2023-08-05T06:34:54.621Z,5.73
2023-08-05T06:37:23.336Z,5.87
2023-08-05T06:39:50.547Z,4.50
2023-08-05T06:42:17.766Z,5.07
2023-08-05T06:44:45.464Z,5.87
2023-08-05T06:47:13.641Z,4.40
2023-08-05T06:49:40.802Z,4.80
2023-08-05T06:52:08.206Z,4.80
2023-08-05T06:54:35.719Z,4.30
2023-08-05T06:57:02.879Z,4.00
2023-08-05T06:59:30.273Z,4.30
2023-08-05T07:01:57.401Z,4.50
2023-08-05T07:04:24.676Z,5.10
2023-08-05T07:06:51.932Z,4.33
2023-08-05T07:09:21.258Z,4.33
2023-08-05T07:11:49.147Z,4.50
2023-08-05T07:14:16.795Z,4.13
2023-08-05T07:16:44.124Z,3.97
2023-08-05T07:19:14.036Z,3.70
2023-08-05T07:21:42.519Z,3.83
2023-08-05T07:24:09.796Z,4.27
2023-08-05T07:26:37.060Z,3.53
2023-08-05T07:29:04.379Z,3.50
2023-08-05T07:31:31.710Z,3.30
2023-08-05T07:33:58.908Z,3.13
2023-08-05T07:36:28.452Z,3.00
2023-08-05T07:38:55.751Z,3.43
2023-08-05T07:41:24.644Z,3.60
2023-08-05T07:43:52.290Z,3.40
2023-08-05T07:46:20.927Z,4.20
2023-08-05T07:48:51.736Z,3.87
2023-08-05T07:51:19.712Z,3.80
2023-08-05T07:53:49.601Z,4.10
2023-08-05T07:56:17.441Z,3.50
2023-08-05T07:58:48.366Z,4.07
2023-08-05T08:01:25.935Z,3.63
2023-08-05T08:03:58.121Z,4.18
2023-08-05T08:06:25.350Z,4.17
2023-08-05T08:08:52.910Z,4.37
2023-08-05T08:11:20.446Z,4.07
2023-08-05T08:13:47.652Z,4.47
2023-08-05T08:16:17.163Z,4.47
2023-08-05T08:18:44.741Z,4.47
2023-08-05T08:21:13.759Z,5.03
2023-08-05T08:23:41.022Z,4.13
2023-08-05T08:26:08.261Z,3.88
2023-08-05T08:28:35.577Z,4.53
2023-08-05T08:31:03.771Z,3.73
2023-08-05T08:33:31.284Z,4.10
2023-08-05T08:36:01.975Z,3.70
2023-08-05T08:38:29.129Z,3.70
2023-08-05T08:41:06.125Z,3.70
2023-08-05T08:43:33.469Z,3.83
2023-08-05T08:46:01.886Z,3.80
2023-08-05T08:48:31.169Z,4.33
2023-08-05T08:50:59.765Z,3.77
2023-08-05T08:53:27.905Z,4.53
2023-08-05T08:55:55.364Z,4.90
2023-08-05T08:58:24.771Z,4.90
2023-08-05T09:00:52.159Z,4.13
2023-08-05T09:03:20.060Z,4.88
2023-08-05T09:05:48.203Z,4.83
2023-08-05T09:08:15.410Z,5.10
2023-08-05T09:10:44.928Z,5.15
2023-08-05T09:13:13.510Z,6.65
2023-08-05T09:15:40.972Z,5.30
2023-08-05T09:18:09.843Z,4.82
2023-08-05T09:20:38.132Z,5.05
2023-08-05T09:23:08.322Z,5.40
2023-08-05T09:25:40.240Z,5.05
2023-08-05T09:28:09.330Z,5.20
2023-08-05T09:30:36.701Z,5.00
2023-08-05T09:33:05.715Z,5.43
2023-08-05T09:35:33.100Z,5.25
2023-08-05T09:38:01.967Z,4.45
2023-08-05T09:40:30.458Z,4.22
2023-08-05T09:43:01.087Z,4.88
2023-08-05T09:45:29.524Z,4.80
2023-08-05T09:48:05.136Z,4.60
2023-08-05T09:50:33.179Z,5.35
2023-08-05T09:53:01.677Z,5.22
2023-08-05T09:55:30.283Z,4.55
2023-08-05T09:57:57.860Z,5.25
2023-08-05T10:00:25.574Z,5.05
2023-08-05T10:02:53.524Z,5.30
2023-08-05T10:05:23.816Z,4.65
2023-08-05T10:07:54.165Z,5.30
2023-08-05T10:10:22.127Z,5.13
2023-08-05T10:13:05.999Z,5.05
2023-08-05T10:15:34.137Z,4.65
2023-08-05T10:18:01.515Z,5.00
2023-08-05T10:20:36.088Z,4.75
2023-08-05T10:23:07.033Z,4.18
2023-08-05T10:25:44.587Z,5.13
2023-08-05T10:28:12.232Z,4.25
2023-08-05T10:30:43.460Z,4.20
2023-08-05T10:33:11.224Z,4.70
2023-08-05T10:35:41.328Z,4.40
2023-08-05T10:38:21.019Z,4.30
2023-08-05T10:40:52.749Z,4.47
2023-08-05T10:43:36.025Z,4.38
2023-08-05T10:46:03.168Z,4.57
2023-08-05T10:48:31.246Z,4.20
2023-08-05T10:50:59.241Z,4.00
2023-08-05T10:53:26.399Z,4.40
2023-08-05T10:55:58.172Z,3.60
2023-08-05T10:58:26.352Z,3.50
2023-08-05T11:00:57.402Z,3.30
2023-08-05T11:03:31.615Z,2.78
2023-08-05T11:06:05.101Z,3.47
2023-08-05T11:08:33.417Z,3.90
2023-08-05T11:11:07.900Z,3.55
2023-08-05T11:13:39.134Z,3.70
2023-08-05T11:16:06.430Z,3.25
2023-08-05T11:18:34.074Z,3.65
2023-08-05T11:21:02.675Z,3.38
2023-08-05T11:23:29.981Z,3.92
2023-08-05T11:26:00.033Z,3.10
2023-08-05T11:28:27.274Z,2.50
2023-08-05T11:30:55.285Z,3.17
2023-08-05T11:33:23.095Z,3.22
2023-08-05T11:35:53.229Z,3.00
2023-08-05T11:38:20.794Z,2.83
2023-08-05T11:40:49.473Z,2.95
2023-08-05T11:43:17.434Z,2.67
2023-08-05T11:45:45.005Z,3.00
2023-08-05T11:48:18.490Z,2.50
2023-08-05T11:50:45.741Z,2.65
2023-08-05T11:53:13.742Z,3.15
2023-08-05T11:55:43.426Z,2.30
2023-08-05T11:58:12.409Z,2.63
2023-08-05T12:00:44.380Z,2.92
2023-08-05T12:03:12.069Z,2.60
2023-08-05T12:05:39.357Z,3.03
2023-08-05T12:08:06.562Z,3.03
2023-08-05T12:10:33.805Z,3.00
2023-08-05T12:13:04.324Z,3.45
2023-08-05T12:15:31.937Z,3.25
2023-08-05T12:17:59.377Z,3.42
2023-08-05T12:20:27.669Z,3.78
2023-08-05T12:22:57.901Z,4.45
2023-08-05T12:25:25.806Z,3.70
2023-08-05T12:27:53.475Z,3.28
2023-08-05T12:30:20.689Z,3.80
2023-08-05T12:32:48.052Z,3.60
2023-08-05T12:35:15.549Z,3.72
2023-08-05T12:37:43.350Z,3.95
2023-08-05T12:40:11.884Z,4.13
2023-08-05T12:42:39.291Z,3.80
2023-08-05T12:45:08.628Z,3.90
2023-08-05T12:47:38.026Z,4.22
2023-08-05T12:50:05.939Z,3.85
2023-08-05T12:52:33.108Z,4.13
2023-08-05T12:55:00.416Z,4.30
2023-08-05T12:57:27.673Z,4.07
2023-08-05T12:59:55.068Z,4.25
2023-08-05T13:02:24.800Z,4.40
2023-08-05T13:04:55.449Z,4.78
2023-08-05T13:07:22.700Z,4.80
2023-08-05T13:09:49.913Z,4.63
2023-08-05T13:12:17.168Z,4.45
2023-08-05T13:14:44.780Z,4.65
2023-08-05T13:17:12.940Z,4.05
2023-08-05T13:19:40.174Z,4.25
2023-08-05T13:22:07.477Z,4.78
2023-08-05T13:24:35.699Z,5.72
2023-08-05T13:27:06.202Z,5.40
2023-08-05T13:29:33.534Z,5.97
2023-08-05T13:32:00.809Z,6.00
2023-08-05T13:34:28.134Z,6.45
2023-08-05T13:36:55.391Z,5.97
2023-08-05T13:39:23.989Z,5.50
2023-08-05T13:41:58.766Z,5.65
2023-08-05T13:44:27.287Z,5.25
2023-08-05T13:46:54.766Z,5.43
2023-08-05T13:49:22.062Z,5.50
2023-08-05T13:51:49.370Z,5.53
2023-08-05T13:54:16.605Z,4.95
2023-08-05T13:56:43.782Z,4.95
2023-08-05T13:59:10.949Z,5.35
2023-08-05T14:01:38.093Z,4.55
2023-08-05T14:04:05.340Z,4.80
2023-08-05T14:06:32.571Z,4.75
2023-08-05T14:09:04.937Z,4.80
2023-08-05T14:11:32.142Z,4.93
2023-08-05T14:13:59.236Z,4.70
2023-08-05T14:16:26.666Z,4.65
2023-08-05T14:18:54.466Z,4.30
2023-08-05T14:21:22.449Z,7.07
2023-08-05T14:23:49.698Z,4.25
2023-08-05T14:26:16.937Z,4.18
2023-08-05T14:28:44.097Z,4.75
2023-08-05T14:31:11.442Z,4.03
2023-08-05T14:33:38.629Z,3.97
2023-08-05T14:36:15.074Z,4.22
2023-08-05T14:38:42.187Z,4.40
2023-08-05T14:41:15.427Z,4.30
2023-08-05T14:43:44.107Z,4.70
2023-08-05T14:46:11.395Z,4.75
2023-08-05T14:48:38.616Z,4.68
2023-08-05T14:51:06.124Z,4.68
2023-08-05T14:53:33.310Z,4.20
2023-08-05T14:56:01.073Z,5.13
2023-08-05T14:58:28.344Z,4.20
2023-08-05T15:00:55.529Z,4.13
2023-08-05T15:03:22.922Z,4.72
2023-08-05T15:05:54.527Z,5.00
2023-08-05T15:08:23.376Z,3.83
2023-08-05T15:11:00.518Z,3.53
2023-08-05T15:13:28.964Z,2.40
2023-08-05T15:15:56.572Z,2.50
2023-08-05T15:18:24.166Z,1.95
2023-08-05T15:20:51.472Z,2.08
2023-08-05T15:23:30.154Z,2.05
2023-08-05T15:25:58.308Z,1.92
2023-08-05T15:28:25.477Z,2.10
2023-08-05T15:30:52.617Z,2.80
2023-08-05T15:33:19.791Z,2.07
2023-08-05T15:35:47.326Z,2.40
2023-08-05T15:38:14.697Z,2.60
2023-08-05T15:40:43.296Z,3.00
2023-08-05T15:43:10.508Z,3.13
2023-08-05T15:45:38.860Z,3.07
2023-08-05T15:48:06.247Z,2.80
2023-08-05T15:50:33.925Z,2.97
2023-08-05T15:53:01.089Z,3.43
2023-08-05T15:55:28.518Z,3.23
2023-08-05T15:57:55.703Z,2.80
2023-08-05T16:00:22.938Z,2.80
2023-08-05T16:02:50.132Z,3.67
2023-08-05T16:05:18.757Z,3.80
2023-08-05T16:07:47.137Z,3.30
2023-08-05T16:10:14.291Z,3.10
2023-08-05T16:12:41.898Z,3.00
2023-08-05T16:15:09.253Z,3.80
2023-08-05T16:17:36.590Z,2.83
2023-08-05T16:20:03.976Z,3.30
2023-08-05T16:22:31.079Z,3.33
2023-08-05T16:24:58.431Z,3.07
2023-08-05T16:27:25.601Z,3.30
2023-08-05T16:29:52.956Z,3.50
2023-08-05T16:32:20.345Z,3.80
2023-08-05T16:34:47.638Z,3.87
2023-08-05T16:37:14.740Z,3.93
2023-08-05T16:39:41.862Z,3.60
2023-08-05T16:42:09.095Z,4.07
2023-08-05T16:44:36.345Z,3.93
2023-08-05T16:47:05.322Z,4.03
2023-08-05T16:49:34.261Z,3.90
2023-08-05T16:52:01.415Z,3.97
2023-08-05T16:54:28.527Z,4.30
2023-08-05T16:56:55.694Z,3.80
2023-08-05T16:59:22.854Z,3.70
2023-08-05T17:01:51.795Z,3.80
2023-08-05T17:04:19.382Z,4.20
2023-08-05T17:06:48.287Z,4.43
2023-08-05T17:09:15.983Z,4.93
2023-08-05T17:11:43.589Z,4.53
2023-08-05T17:14:12.021Z,4.83
2023-08-05T17:16:39.298Z,4.70
2023-08-05T17:19:07.846Z,4.53
2023-08-05T17:21:35.064Z,4.43
2023-08-05T17:24:03.444Z,4.10
2023-08-05T17:26:30.717Z,3.97
2023-08-05T17:28:57.952Z,3.83
2023-08-05T17:31:25.146Z,4.20
2023-08-05T17:33:52.293Z,3.93
2023-08-05T17:36:19.888Z,4.17
2023-08-05T17:38:49.866Z,4.37
2023-08-05T17:41:18.715Z,4.60
2023-08-05T17:43:46.866Z,4.40
2023-08-05T17:46:14.369Z,4.47
2023-08-05T17:48:41.639Z,4.53
2023-08-05T17:51:09.140Z,4.90
2023-08-05T17:53:36.923Z,4.03
2023-08-05T17:56:04.210Z,4.00
2023-08-05T17:58:31.542Z,3.93
2023-08-05T18:00:58.894Z,4.07
2023-08-05T18:03:26.342Z,4.20
2023-08-05T18:06:04.346Z,4.37
2023-08-05T18:08:39.358Z,4.63
2023-08-05T18:11:06.449Z,4.57
2023-08-05T18:13:35.735Z,3.90
2023-08-05T18:16:06.382Z,4.43
2023-08-05T18:18:35.360Z,4.20
2023-08-05T18:21:05.386Z,4.20
2023-08-05T18:23:36.573Z,4.17
2023-08-05T18:26:05.066Z,4.10
2023-08-05T18:28:32.671Z,4.63
2023-08-05T18:31:01.904Z,4.40
2023-08-05T18:33:32.510Z,4.47
2023-08-05T18:36:03.775Z,4.67
2023-08-05T18:38:31.583Z,4.10
2023-08-05T18:40:58.862Z,4.40
2023-08-05T18:43:25.995Z,4.30
2023-08-05T18:45:58.235Z,4.30
2023-08-05T18:48:27.290Z,4.23
2023-08-05T18:50:54.979Z,4.87
2023-08-05T18:53:22.515Z,4.77
2023-08-05T18:55:50.686Z,4.63
2023-08-05T18:58:18.463Z,4.40
2023-08-05T19:00:47.818Z,4.50
2023-08-05T19:03:15.214Z,4.57
2023-08-05T19:05:42.887Z,5.30
2023-08-05T19:08:10.110Z,5.00
2023-08-05T19:10:43.117Z,4.83
2023-08-05T19:13:10.368Z,5.07
2023-08-05T19:15:37.691Z,5.70
2023-08-05T19:18:07.054Z,4.87
2023-08-05T19:20:39.072Z,5.00
2023-08-05T19:23:08.231Z,4.47
2023-08-05T19:25:35.400Z,4.53
2023-08-05T19:28:02.789Z,4.50
2023-08-05T19:30:32.465Z,4.83
2023-08-05T19:32:59.819Z,5.10
2023-08-05T19:35:28.456Z,4.63
2023-08-05T19:37:57.846Z,4.47
2023-08-05T19:40:25.054Z,4.60
2023-08-05T19:42:52.255Z,5.03
2023-08-05T19:45:21.056Z,4.57
2023-08-05T19:47:49.255Z,4.60
2023-08-05T19:50:16.463Z,4.33
2023-08-05T19:52:43.620Z,4.60
2023-08-05T19:55:15.483Z,4.53
2023-08-05T19:57:42.721Z,4.90
2023-08-05T20:00:11.886Z,4.10
2023-08-05T20:02:41.085Z,5.10
2023-08-05T20:05:08.572Z,5.00
2023-08-05T20:07:37.665Z,4.77
2023-08-05T20:10:05.174Z,5.93
2023-08-05T20:12:33.432Z,5.30
2023-08-05T20:15:00.667Z,4.50
2023-08-05T20:17:28.000Z,4.70
2023-08-05T20:19:55.772Z,5.30
2023-08-05T20:22:23.025Z,4.73
2023-08-05T20:24:50.282Z,4.43
2023-08-05T20:27:19.412Z,5.10
2023-08-05T20:29:46.947Z,4.43
2023-08-05T20:32:15.120Z,4.50
2023-08-05T20:34:44.004Z,4.90
2023-08-05T20:37:13.596Z,4.30
2023-08-05T20:39:43.215Z,4.90
2023-08-05T20:42:12.481Z,4.33
2023-08-05T20:44:39.783Z,4.20
2023-08-05T20:47:07.121Z,4.33
2023-08-05T20:49:34.285Z,4.40
2023-08-05T20:52:01.864Z,4.40
2023-08-05T20:54:29.226Z,4.50
2023-08-05T20:56:57.694Z,4.90
2023-08-05T20:59:25.230Z,4.13
2023-08-05T21:01:54.129Z,4.30
2023-08-05T21:04:21.577Z,5.00
2023-08-05T21:06:48.829Z,4.77
2023-08-05T21:09:15.980Z,4.77
2023-08-05T21:11:43.477Z,3.97
2023-08-05T21:14:10.702Z,4.50
2023-08-05T21:16:38.146Z,4.43
2023-08-05T21:19:05.356Z,4.97
2023-08-05T21:21:32.567Z,4.50
2023-08-05T21:23:59.808Z,4.47
2023-08-05T21:26:27.111Z,4.27
2023-08-05T21:28:54.517Z,4.27
2023-08-05T21:31:21.667Z,4.87
2023-08-05T21:33:48.815Z,4.27
2023-08-05T21:36:16.096Z,4.50
2023-08-05T21:38:43.224Z,4.77
2023-08-05T21:41:10.977Z,5.50
2023-08-05T21:43:38.135Z,4.33
2023-08-05T21:46:06.042Z,5.20
2023-08-05T21:48:34.912Z,5.00
2023-08-05T21:51:04.574Z,5.00
2023-08-05T21:53:31.952Z,5.37
2023-08-05T21:56:00.650Z,4.90
2023-08-05T21:58:28.177Z,5.27
2023-08-05T22:00:57.915Z,5.67
2023-08-05T22:03:27.034Z,5.50
2023-08-05T22:05:58.299Z,5.60
2023-08-05T22:08:26.533Z,5.37
2023-08-05T22:10:54.615Z,5.87
2023-08-05T22:13:21.858Z,5.90
2023-08-05T22:15:52.845Z,6.73
2023-08-05T22:18:20.883Z,7.03
2023-08-05T22:20:54.340Z,5.97
2023-08-05T22:23:21.438Z,6.03
2023-08-05T22:25:48.831Z,5.97
2023-08-05T22:28:17.152Z,6.77
2023-08-05T22:30:44.838Z,6.43
2023-08-05T22:33:12.076Z,6.73
2023-08-05T22:35:41.416Z,7.17
2023-08-05T22:38:10.467Z,7.70
2023-08-05T22:40:38.110Z,7.77
2023-08-05T22:43:05.394Z,7.57
2023-08-05T22:45:32.809Z,7.43
2023-08-05T22:48:00.145Z,7.63
2023-08-05T22:50:28.843Z,8.27
2023-08-05T22:52:56.566Z,8.00
2023-08-05T22:55:23.927Z,7.90
2023-08-05T22:57:51.250Z,8.80
2023-08-05T23:00:18.506Z,8.27
2023-08-05T23:02:45.849Z,8.43
2023-08-05T23:05:13.224Z,9.17
2023-08-05T23:07:40.407Z,8.13
2023-08-05T23:10:08.021Z,8.37
2023-08-05T23:12:39.517Z,7.80
2023-08-05T23:15:07.149Z,9.33
2023-08-05T23:17:34.530Z,8.43
2023-08-05T23:20:01.810Z,8.43
2023-08-05T23:22:29.003Z,8.70
2023-08-05T23:24:56.708Z,8.87
2023-08-05T23:27:24.224Z,8.53
2023-08-05T23:29:51.371Z,9.10
2023-08-05T23:32:18.557Z,9.13
2023-08-05T23:34:47.817Z,10.30
2023-08-05T23:37:15.404Z,8.87
2023-08-05T23:39:44.783Z,9.83
2023-08-05T23:42:13.900Z,9.77
2023-08-05T23:44:42.864Z,9.67
2023-08-05T23:47:12.280Z,8.53
2023-08-05T23:49:39.439Z,9.43
2023-08-05T23:52:06.968Z,9.60
2023-08-05T23:54:35.396Z,9.77
2023-08-05T23:57:02.658Z,9.87
2023-08-05T23:59:30.102Z,8.87
